Time;durP1;ratioP1;P1;durP2;ratioP2;P2;SDS_P1;SDS_P2;PMS_P1;PMS_P2;Temp;Humidity;BMP_temperature;BMP_pressure;BME280_temperature;BME280_humidity;BME280_pressure;Samples;Min_cycle;Max_cycle;Signal;HPM_P1;HPM_P2
2021/06/05 00:02:04;0.00;0.00;0.62;0.00;0.00;0.62;11.50;10.70;;;30.00;35.30;;;;;;2274063;61;20545;-75
2021/06/05 00:04:49;0.00;0.00;0.62;0.00;0.00;0.62;10.70;9.80;;;30.00;35.30;;;;;;2273632;61;20603;-74
2021/06/05 00:07:34;0.00;0.00;0.62;0.00;0.00;0.62;11.10;10.20;;;30.00;35.30;;;;;;2274243;61;20404;-74
2021/06/05 00:10:28;0.00;0.00;0.62;0.00;0.00;0.62;10.20;9.40;;;29.90;35.20;;;;;;2273991;61;20647;-75
2021/06/05 00:13:17;0.00;0.00;0.62;0.00;0.00;0.62;11.33;10.43;;;29.90;35.20;;;;;;2273758;61;20440;-74
2021/06/05 00:16:05;0.00;0.00;0.62;0.00;0.00;0.62;10.80;9.70;;;29.90;35.20;;;;;;2274090;61;20379;-74
2021/06/05 00:18:52;0.00;0.00;0.62;0.00;0.00;0.62;9.97;9.20;;;29.90;35.20;;;;;;2273976;61;20363;-75
2021/06/05 00:21:37;0.00;0.00;0.62;0.00;0.00;0.62;11.03;10.07;;;29.90;35.20;;;;;;2273705;61;20434;-75
2021/06/05 00:24:21;0.00;0.00;0.62;0.00;0.00;0.62;10.57;9.77;;;29.90;35.10;;;;;;2273725;61;20386;-74
2021/06/05 00:27:06;0.00;0.00;0.62;0.00;0.00;0.62;11.33;10.33;;;29.90;35.20;;;;;;2273816;61;20391;-69
2021/06/05 00:29:51;0.00;0.00;0.62;0.00;0.00;0.62;12.33;11.30;;;29.90;35.10;;;;;;2274038;61;20374;-71
2021/06/05 00:32:35;0.00;0.00;0.62;0.00;0.00;0.62;10.30;9.40;;;29.90;35.90;;;;;;2274009;61;20490;-69
2021/06/05 00:35:24;0.00;0.00;0.62;0.00;0.00;0.62;11.50;10.70;;;29.90;35.20;;;;;;2273617;61;20390;-70
2021/06/05 00:38:10;0.00;0.00;0.62;0.00;0.00;0.62;10.67;9.80;;;29.90;35.30;;;;;;2274081;61;20483;-70
2021/06/05 00:40:57;0.00;0.00;0.62;0.00;0.00;0.62;12.40;11.40;;;29.90;35.20;;;;;;2273243;61;20382;-71
2021/06/05 00:43:46;0.00;0.00;0.62;0.00;0.00;0.62;11.87;10.97;;;29.90;35.30;;;;;;2273817;61;20362;-71
2021/06/05 00:46:32;0.00;0.00;0.62;0.00;0.00;0.62;10.90;10.03;;;29.80;35.20;;;;;;2276388;61;20363;-71
2021/06/05 00:49:17;0.00;0.00;0.62;0.00;0.00;0.62;10.40;9.57;;;29.80;35.20;;;;;;2273838;61;20359;-71
2021/06/05 00:52:05;0.00;0.00;0.62;0.00;0.00;0.62;11.10;10.30;;;29.80;35.20;;;;;;2273477;61;20375;-71
2021/06/05 00:54:52;0.00;0.00;0.62;0.00;0.00;0.62;11.83;10.60;;;29.80;35.20;;;;;;2276327;60;20367;-71
2021/06/05 00:57:37;0.00;0.00;0.62;0.00;0.00;0.62;10.90;10.10;;;29.80;35.20;;;;;;2273606;61;20360;-71
2021/06/05 01:00:32;0.00;0.00;0.62;0.00;0.00;0.62;11.63;10.80;;;29.80;35.30;;;;;;2273898;61;20363;-71
2021/06/05 01:03:17;0.00;0.00;0.62;0.00;0.00;0.62;10.60;9.80;;;29.80;35.30;;;;;;2273272;61;20378;-71
2021/06/05 01:06:08;0.00;0.00;0.62;0.00;0.00;0.62;12.90;11.90;;;29.80;35.30;;;;;;2270573;61;20354;-71
2021/06/05 01:09:03;0.00;0.00;0.62;0.00;0.00;0.62;11.80;10.90;;;29.80;35.50;;;;;;2273938;61;20428;-70
2021/06/05 01:11:58;0.00;0.00;0.62;0.00;0.00;0.62;12.27;11.37;;;29.70;35.40;;;;;;2273321;61;20395;-71
2021/06/05 01:14:51;0.00;0.00;0.62;0.00;0.00;0.62;12.20;11.20;;;29.70;35.40;;;;;;2273557;61;20730;-71
2021/06/05 01:17:40;0.00;0.00;0.62;0.00;0.00;0.62;11.60;10.70;;;29.70;35.40;;;;;;2276007;61;20371;-70
2021/06/05 01:20:42;0.00;0.00;0.62;0.00;0.00;0.62;12.10;11.00;;;29.70;35.40;;;;;;2273084;61;20450;-70
2021/06/05 01:23:38;0.00;0.00;0.62;0.00;0.00;0.62;11.20;10.40;;;29.70;35.40;;;;;;2273363;61;20387;-72
2021/06/05 01:26:29;0.00;0.00;0.62;0.00;0.00;0.62;12.67;11.67;;;29.70;35.50;;;;;;2273188;61;20391;-71
2021/06/05 01:29:19;0.00;0.00;0.62;0.00;0.00;0.62;11.80;10.53;;;29.70;35.50;;;;;;2273452;61;20429;-71
2021/06/05 01:32:09;0.00;0.00;0.62;0.00;0.00;0.62;11.60;10.70;;;29.60;35.50;;;;;;2273712;61;20444;-71
2021/06/05 01:34:58;0.00;0.00;0.62;0.00;0.00;0.62;11.73;10.77;;;29.60;35.50;;;;;;2273348;61;20390;-71
2021/06/05 01:37:45;0.00;0.00;0.62;0.00;0.00;0.62;11.50;10.63;;;29.60;35.50;;;;;;2273738;61;20355;-71
2021/06/05 01:40:40;0.00;0.00;0.62;0.00;0.00;0.62;11.93;11.10;;;29.60;35.50;;;;;;2273144;61;20354;-71
2021/06/05 01:43:28;0.00;0.00;0.62;0.00;0.00;0.62;11.20;10.40;;;29.60;35.60;;;;;;2273142;61;20401;-71
2021/06/05 01:46:20;0.00;0.00;0.62;0.00;0.00;0.62;12.33;11.27;;;29.60;35.50;;;;;;2273383;61;20366;-71
2021/06/05 01:49:07;0.00;0.00;0.62;0.00;0.00;0.62;11.60;10.80;;;29.60;35.50;;;;;;2273462;61;20431;-70
2021/06/05 01:52:00;0.00;0.00;0.62;0.00;0.00;0.62;11.97;11.07;;;29.60;35.50;;;;;;2275974;60;20378;-72
2021/06/05 01:54:51;0.00;0.00;0.62;0.00;0.00;0.62;12.07;11.27;;;29.60;35.60;;;;;;2273634;61;20758;-71
2021/06/05 01:57:40;0.00;0.00;0.62;0.00;0.00;0.62;12.70;11.80;;;29.60;35.50;;;;;;2273091;61;20589;-70
2021/06/05 02:00:44;0.00;0.00;0.62;0.00;0.00;0.62;12.27;11.40;;;29.50;35.40;;;;;;2273377;61;20623;-71
2021/06/05 02:03:29;0.00;0.00;0.62;0.00;0.00;0.62;11.13;10.23;;;29.50;35.50;;;;;;2272781;61;20375;-72
2021/06/05 02:06:31;0.00;0.00;0.62;0.00;0.00;0.62;11.60;10.60;;;29.50;35.50;;;;;;2273267;61;20383;-72
2021/06/05 02:09:25;0.00;0.00;0.62;0.00;0.00;0.62;11.40;10.60;;;29.50;35.50;;;;;;2273161;61;20362;-71
2021/06/05 02:12:25;0.00;0.00;0.62;0.00;0.00;0.62;10.80;10.00;;;29.50;35.50;;;;;;2275760;60;20417;-72
2021/06/05 02:15:46;0.00;0.00;0.62;0.00;0.00;0.62;13.07;11.87;;;29.50;35.50;;;;;;2272533;61;20355;-70
2021/06/05 02:18:39;0.00;0.00;0.62;0.00;0.00;0.62;12.00;11.00;;;29.50;35.50;;;;;;2275774;61;20612;-70
2021/06/05 02:21:32;0.00;0.00;0.62;0.00;0.00;0.62;13.40;12.23;;;29.50;35.50;;;;;;2273467;61;20406;-71
2021/06/05 02:24:22;0.00;0.00;0.62;0.00;0.00;0.62;13.53;12.37;;;29.50;35.50;;;;;;2273140;61;20865;-72
2021/06/05 02:27:07;0.00;0.00;0.62;0.00;0.00;0.62;11.37;10.47;;;29.40;35.50;;;;;;2273082;61;20387;-71
2021/06/05 02:29:59;0.00;0.00;0.62;0.00;0.00;0.62;13.13;12.07;;;29.40;35.50;;;;;;2273323;61;20394;-70
2021/06/05 02:32:48;0.00;0.00;0.62;0.00;0.00;0.62;12.40;11.40;;;29.40;35.60;;;;;;2276128;60;20375;-71
2021/06/05 02:35:42;0.00;0.00;0.62;0.00;0.00;0.62;12.90;11.90;;;29.40;36.30;;;;;;2274404;61;20355;-70
2021/06/05 02:38:34;0.00;0.00;0.62;0.00;0.00;0.62;13.13;12.23;;;29.40;35.60;;;;;;2274453;61;20382;-71
2021/06/05 02:41:24;0.00;0.00;0.62;0.00;0.00;0.62;11.63;10.83;;;29.40;35.60;;;;;;2273501;61;20440;-70
2021/06/05 02:44:13;0.00;0.00;0.62;0.00;0.00;0.62;12.53;11.43;;;29.40;35.60;;;;;;2273940;61;20355;-71
2021/06/05 02:46:59;0.00;0.00;0.62;0.00;0.00;0.62;12.57;11.23;;;29.40;35.80;;;;;;2276665;61;20364;-71
2021/06/05 02:49:46;0.00;0.00;0.62;0.00;0.00;0.62;14.30;13.00;;;29.30;35.60;;;;;;2273697;61;20378;-71
2021/06/05 02:52:34;0.00;0.00;0.62;0.00;0.00;0.62;13.80;12.70;;;29.30;35.60;;;;;;2274311;61;20379;-71
2021/06/05 02:55:31;0.00;0.00;0.62;0.00;0.00;0.62;13.47;12.27;;;29.30;35.60;;;;;;2276391;61;20359;-71
2021/06/05 02:58:16;0.00;0.00;0.62;0.00;0.00;0.62;13.53;12.63;;;29.30;35.60;;;;;;2273973;61;20358;-71
2021/06/05 03:01:06;0.00;0.00;0.62;0.00;0.00;0.62;13.40;12.37;;;29.30;35.60;;;;;;2274032;61;20358;-71
2021/06/05 03:03:52;0.00;0.00;0.62;0.00;0.00;0.62;12.90;12.00;;;29.30;35.60;;;;;;2273664;61;20627;-71
2021/06/05 03:06:39;0.00;0.00;0.62;0.00;0.00;0.62;12.37;11.47;;;29.30;35.60;;;;;;2273981;61;20408;-71
2021/06/05 03:09:24;0.00;0.00;0.62;0.00;0.00;0.62;12.60;11.70;;;29.20;35.50;;;;;;2273709;61;20581;-71
2021/06/05 03:12:14;0.00;0.00;0.62;0.00;0.00;0.62;14.20;13.10;;;29.20;35.60;;;;;;2273572;61;20746;-71
2021/06/05 03:15:00;0.00;0.00;0.62;0.00;0.00;0.62;13.27;12.27;;;29.20;35.70;;;;;;2274340;61;20391;-72
2021/06/05 03:17:45;0.00;0.00;0.62;0.00;0.00;0.62;12.87;11.87;;;29.20;35.60;;;;;;2273868;61;20559;-71
2021/06/05 03:20:34;0.00;0.00;0.62;0.00;0.00;0.62;12.40;11.50;;;29.20;35.60;;;;;;2274235;61;20360;-71
2021/06/05 03:23:25;0.00;0.00;0.62;0.00;0.00;0.62;12.30;11.40;;;29.20;35.60;;;;;;2273937;61;20448;-71
2021/06/05 03:26:13;0.00;0.00;0.62;0.00;0.00;0.62;13.20;12.30;;;29.20;35.70;;;;;;2274065;61;20363;-71
2021/06/05 03:28:58;0.00;0.00;0.62;0.00;0.00;0.62;12.73;11.80;;;29.20;35.70;;;;;;2273874;61;20351;-69
2021/06/05 03:31:45;0.00;0.00;0.62;0.00;0.00;0.62;11.67;10.87;;;29.20;35.70;;;;;;2273352;61;20421;-70
2021/06/05 03:34:30;0.00;0.00;0.62;0.00;0.00;0.62;13.57;12.53;;;29.10;35.60;;;;;;2273694;61;20356;-71
2021/06/05 03:37:16;0.00;0.00;0.62;0.00;0.00;0.62;12.10;11.10;;;29.10;35.70;;;;;;2276583;61;20385;-71
2021/06/05 03:40:12;0.00;0.00;0.62;0.00;0.00;0.62;13.97;12.87;;;29.10;35.70;;;;;;2273281;61;20360;-70
2021/06/05 03:42:58;0.00;0.00;0.62;0.00;0.00;0.62;12.40;11.50;;;29.10;35.80;;;;;;2274035;61;20412;-70
2021/06/05 03:45:43;0.00;0.00;0.62;0.00;0.00;0.62;12.53;11.50;;;29.10;35.80;;;;;;2273909;61;20584;-71
2021/06/05 03:48:28;0.00;0.00;0.62;0.00;0.00;0.62;12.23;11.23;;;29.10;35.80;;;;;;2273605;61;20403;-70
2021/06/05 03:51:13;0.00;0.00;0.62;0.00;0.00;0.62;11.80;10.70;;;29.10;35.90;;;;;;2274004;61;20468;-71
2021/06/05 03:53:58;0.00;0.00;0.62;0.00;0.00;0.62;11.83;11.00;;;29.10;35.90;;;;;;2273883;61;20363;-70
2021/06/05 03:56:46;0.00;0.00;0.62;0.00;0.00;0.62;11.33;10.53;;;29.10;35.90;;;;;;2273608;61;20425;-71
2021/06/05 03:59:30;0.00;0.00;0.62;0.00;0.00;0.62;11.23;10.40;;;29.10;35.90;;;;;;2274163;61;20818;-71
2021/06/05 04:02:15;0.00;0.00;0.62;0.00;0.00;0.62;10.57;9.77;;;29.10;35.90;;;;;;2273509;61;20858;-71
2021/06/05 04:04:59;0.00;0.00;0.62;0.00;0.00;0.62;10.90;10.00;;;29.10;35.90;;;;;;2274156;61;20394;-71
2021/06/05 04:07:44;0.00;0.00;0.62;0.00;0.00;0.62;11.50;10.60;;;29.10;36.00;;;;;;2273903;61;20439;-71
2021/06/05 04:10:29;0.00;0.00;0.62;0.00;0.00;0.62;10.10;9.30;;;29.10;36.00;;;;;;2273690;61;20587;-71
2021/06/05 04:13:16;0.00;0.00;0.62;0.00;0.00;0.62;10.27;9.47;;;29.10;36.00;;;;;;2274091;61;20738;-71
2021/06/05 04:16:01;0.00;0.00;0.62;0.00;0.00;0.62;10.40;9.60;;;29.10;36.00;;;;;;2273851;61;20390;-71
2021/06/05 04:18:46;0.00;0.00;0.62;0.00;0.00;0.62;9.83;9.13;;;29.10;36.00;;;;;;2273918;61;20359;-70
2021/06/05 04:21:31;0.00;0.00;0.62;0.00;0.00;0.62;10.00;9.20;;;29.00;35.90;;;;;;2273805;61;20466;-71
2021/06/05 04:24:15;0.00;0.00;0.62;0.00;0.00;0.62;10.10;9.30;;;29.00;36.00;;;;;;2273629;61;20351;-71
2021/06/05 04:27:00;0.00;0.00;0.62;0.00;0.00;0.62;9.40;8.60;;;29.00;36.00;;;;;;2274072;61;20586;-70
2021/06/05 04:29:46;0.00;0.00;0.62;0.00;0.00;0.62;9.87;9.17;;;29.00;36.00;;;;;;2274076;61;20364;-71
2021/06/05 04:32:30;0.00;0.00;0.62;0.00;0.00;0.62;9.90;9.10;;;29.00;35.90;;;;;;2273965;61;20707;-71
2021/06/05 04:35:15;0.00;0.00;0.62;0.00;0.00;0.62;9.00;8.20;;;29.00;36.10;;;;;;2274001;61;20394;-71
2021/06/05 04:38:01;0.00;0.00;0.62;0.00;0.00;0.62;9.27;8.60;;;29.00;36.20;;;;;;2273812;61;20363;-69
2021/06/05 04:40:46;0.00;0.00;0.62;0.00;0.00;0.62;10.20;9.30;;;29.00;36.30;;;;;;2273770;61;20359;-71
2021/06/05 04:43:31;0.00;0.00;0.62;0.00;0.00;0.62;7.77;7.17;;;29.00;36.30;;;;;;2273915;61;20413;-71
2021/06/05 04:46:19;0.00;0.00;0.62;0.00;0.00;0.62;9.27;8.30;;;29.00;36.30;;;;;;2273731;61;20355;-70
2021/06/05 04:49:08;0.00;0.00;0.62;0.00;0.00;0.62;10.00;8.07;;;29.00;36.40;;;;;;2273974;61;20366;-70
2021/06/05 04:51:52;0.00;0.00;0.62;0.00;0.00;0.62;9.10;7.90;;;28.90;36.30;;;;;;2273849;61;20379;-70
2021/06/05 04:54:37;0.00;0.00;0.62;0.00;0.00;0.62;8.47;7.80;;;28.90;36.30;;;;;;2273681;61;20727;-70
2021/06/05 04:57:21;0.00;0.00;0.62;0.00;0.00;0.62;8.60;7.90;;;29.00;36.60;;;;;;2273815;61;20375;-70
2021/06/05 05:00:09;0.00;0.00;0.62;0.00;0.00;0.62;9.20;8.40;;;28.90;36.60;;;;;;2273293;61;20432;-70
2021/06/05 05:02:56;0.00;0.00;0.62;0.00;0.00;0.62;8.27;7.43;;;28.90;36.50;;;;;;2275991;60;20432;-71
2021/06/05 05:05:41;0.00;0.00;0.62;0.00;0.00;0.62;8.83;8.03;;;28.90;36.60;;;;;;2273926;61;20364;-70
2021/06/05 05:08:27;0.00;0.00;0.62;0.00;0.00;0.62;8.20;7.60;;;28.90;36.60;;;;;;2273473;61;20397;-70
2021/06/05 05:11:12;0.00;0.00;0.62;0.00;0.00;0.62;7.70;7.17;;;28.90;36.60;;;;;;2273682;61;20442;-70
2021/06/05 05:13:57;0.00;0.00;0.62;0.00;0.00;0.62;7.53;6.93;;;28.90;36.70;;;;;;2273899;61;20398;-70
2021/06/05 05:16:41;0.00;0.00;0.62;0.00;0.00;0.62;8.37;7.67;;;28.90;36.60;;;;;;2273227;61;20413;-70
2021/06/05 05:19:27;0.00;0.00;0.62;0.00;0.00;0.62;8.83;8.03;;;28.90;36.70;;;;;;2273892;61;20355;-70
2021/06/05 05:22:12;0.00;0.00;0.62;0.00;0.00;0.62;7.70;7.17;;;28.90;36.70;;;;;;2273456;61;20391;-70
2021/06/05 05:24:56;0.00;0.00;0.62;0.00;0.00;0.62;8.67;7.80;;;28.90;36.60;;;;;;2273662;61;20359;-71
2021/06/05 05:27:42;0.00;0.00;0.62;0.00;0.00;0.62;8.13;7.33;;;28.90;36.70;;;;;;2274001;61;20387;-71
2021/06/05 05:30:30;0.00;0.00;0.62;0.00;0.00;0.62;7.73;7.13;;;28.90;36.70;;;;;;2273512;61;20371;-71
2021/06/05 05:33:16;0.00;0.00;0.62;0.00;0.00;0.62;8.50;7.80;;;28.90;36.80;;;;;;2273759;61;20371;-71
2021/06/05 05:36:03;0.00;0.00;0.62;0.00;0.00;0.62;9.03;8.30;;;28.90;36.80;;;;;;2273801;61;20360;-71
2021/06/05 05:38:48;0.00;0.00;0.62;0.00;0.00;0.62;8.60;7.90;;;28.90;36.80;;;;;;2273427;61;20368;-71
2021/06/05 05:41:33;0.00;0.00;0.62;0.00;0.00;0.62;10.27;9.27;;;28.90;36.80;;;;;;2273577;61;20395;-69
2021/06/05 05:44:18;0.00;0.00;0.62;0.00;0.00;0.62;10.90;10.03;;;28.90;36.80;;;;;;2273588;61;20736;-70
2021/06/05 05:47:04;0.00;0.00;0.62;0.00;0.00;0.62;10.10;9.40;;;28.90;36.90;;;;;;2273576;61;20359;-69
2021/06/05 05:49:48;0.00;0.00;0.62;0.00;0.00;0.62;10.60;9.80;;;28.90;36.90;;;;;;2276218;61;20382;-73
2021/06/05 05:52:34;0.00;0.00;0.62;0.00;0.00;0.62;11.50;9.20;;;28.90;36.90;;;;;;2273631;61;20379;-74
2021/06/05 05:55:19;0.00;0.00;0.62;0.00;0.00;0.62;11.10;10.20;;;28.80;36.70;;;;;;2273835;61;20367;-74
2021/06/05 05:58:07;0.00;0.00;0.62;0.00;0.00;0.62;12.57;11.40;;;28.80;36.70;;;;;;2273812;61;20359;-73
2021/06/05 06:00:53;0.00;0.00;0.62;0.00;0.00;0.62;10.63;9.83;;;28.80;36.70;;;;;;2273295;61;20363;-70
2021/06/05 06:03:39;0.00;0.00;0.62;0.00;0.00;0.62;11.10;10.20;;;28.80;36.60;;;;;;2273770;61;20578;-73
2021/06/05 06:06:29;0.00;0.00;0.62;0.00;0.00;0.62;10.80;10.00;;;28.80;36.50;;;;;;2273722;61;20351;-69
2021/06/05 06:09:16;0.00;0.00;0.62;0.00;0.00;0.62;11.90;10.80;;;28.80;36.40;;;;;;2273678;61;20355;-70
2021/06/05 06:12:00;0.00;0.00;0.62;0.00;0.00;0.62;11.37;10.50;;;28.80;36.40;;;;;;2273638;61;20407;-78
2021/06/05 06:14:49;0.00;0.00;0.62;0.00;0.00;0.62;12.60;11.40;;;28.80;36.40;;;;;;2273329;61;20451;-73
2021/06/05 06:17:34;0.00;0.00;0.62;0.00;0.00;0.62;12.47;11.50;;;28.80;36.40;;;;;;2273496;61;20351;-70
2021/06/05 06:20:25;0.00;0.00;0.62;0.00;0.00;0.62;11.83;10.90;;;28.80;36.30;;;;;;2273599;61;20363;-75
2021/06/05 06:23:12;0.00;0.00;0.62;0.00;0.00;0.62;11.37;10.50;;;28.80;36.30;;;;;;2273284;61;20770;-69
2021/06/05 06:26:01;0.00;0.00;0.62;0.00;0.00;0.62;11.70;10.80;;;28.80;36.30;;;;;;2273497;61;20485;-69
2021/06/05 06:28:47;0.00;0.00;0.62;0.00;0.00;0.62;12.20;11.20;;;28.80;36.30;;;;;;2273431;61;20362;-68
2021/06/05 06:31:31;0.00;0.00;0.62;0.00;0.00;0.62;12.00;11.10;;;28.80;36.20;;;;;;2273291;61;20777;-69
2021/06/05 06:34:16;0.00;0.00;0.62;0.00;0.00;0.62;11.83;10.83;;;28.80;36.20;;;;;;2273629;61;20397;-70
2021/06/05 06:37:05;0.00;0.00;0.62;0.00;0.00;0.62;11.13;10.13;;;28.80;36.30;;;;;;2273342;61;20355;-66
2021/06/05 06:39:49;0.00;0.00;0.62;0.00;0.00;0.62;11.73;10.93;;;28.90;36.30;;;;;;2273462;61;20362;-68
2021/06/05 06:42:35;0.00;0.00;0.62;0.00;0.00;0.62;11.23;10.43;;;28.90;36.30;;;;;;2273481;61;20394;-68
2021/06/05 06:45:20;0.00;0.00;0.62;0.00;0.00;0.62;11.23;10.43;;;28.90;36.20;;;;;;2273275;61;20575;-70
2021/06/05 06:48:06;0.00;0.00;0.62;0.00;0.00;0.62;12.70;11.70;;;28.90;36.20;;;;;;2273529;61;20462;-75
2021/06/05 06:50:51;0.00;0.00;0.62;0.00;0.00;0.62;10.80;10.00;;;28.90;36.20;;;;;;2273503;61;20431;-70
2021/06/05 06:53:36;0.00;0.00;0.62;0.00;0.00;0.62;11.93;10.83;;;28.90;36.20;;;;;;2273806;61;20436;-71
2021/06/05 06:56:22;0.00;0.00;0.62;0.00;0.00;0.62;12.30;11.40;;;28.90;36.20;;;;;;2273655;61;20374;-71
2021/06/05 06:59:09;0.00;0.00;0.62;0.00;0.00;0.62;11.57;10.67;;;28.90;36.10;;;;;;2273476;61;20691;-69
2021/06/05 07:01:53;0.00;0.00;0.62;0.00;0.00;0.62;12.20;11.20;;;28.90;36.20;;;;;;2273412;61;20379;-72
2021/06/05 07:04:38;0.00;0.00;0.62;0.00;0.00;0.62;11.40;10.60;;;28.90;36.20;;;;;;2272336;61;20767;-69
2021/06/05 07:07:22;0.00;0.00;0.62;0.00;0.00;0.62;12.73;11.63;;;28.90;36.10;;;;;;2273015;61;20445;-70
2021/06/05 07:10:09;0.00;0.00;0.62;0.00;0.00;0.62;11.20;10.30;;;28.90;36.10;;;;;;2273516;61;20431;-70
2021/06/05 07:12:54;0.00;0.00;0.62;0.00;0.00;0.62;12.00;11.07;;;28.90;36.10;;;;;;2273367;61;20407;-73
2021/06/05 07:15:41;0.00;0.00;0.62;0.00;0.00;0.62;13.17;11.53;;;28.90;36.10;;;;;;2273453;61;20566;-72
2021/06/05 07:18:29;0.00;0.00;0.62;0.00;0.00;0.62;12.63;11.63;;;28.90;36.10;;;;;;2273461;61;20409;-69
2021/06/05 07:21:15;0.00;0.00;0.62;0.00;0.00;0.62;13.10;12.07;;;28.90;36.10;;;;;;2273902;61;20413;-74
2021/06/05 07:24:00;0.00;0.00;0.62;0.00;0.00;0.62;12.20;11.20;;;29.00;36.90;;;;;;2274154;61;20830;-68
2021/06/05 07:26:45;0.00;0.00;0.62;0.00;0.00;0.62;11.00;10.07;;;28.90;36.20;;;;;;2274415;61;20354;-74
2021/06/05 07:29:30;0.00;0.00;0.62;0.00;0.00;0.62;12.00;10.90;;;29.00;36.30;;;;;;2273995;61;20354;-68
2021/06/05 07:32:16;0.00;0.00;0.62;0.00;0.00;0.62;11.13;10.30;;;29.00;36.30;;;;;;2274161;61;20371;-69
2021/06/05 07:35:00;0.00;0.00;0.62;0.00;0.00;0.62;10.50;9.70;;;29.00;36.30;;;;;;2274131;61;20363;-69
2021/06/05 07:37:45;0.00;0.00;0.62;0.00;0.00;0.62;11.63;10.73;;;29.00;36.30;;;;;;2273810;61;20435;-72
2021/06/05 07:40:29;0.00;0.00;0.62;0.00;0.00;0.62;10.87;9.97;;;29.00;36.30;;;;;;2274115;61;20355;-70
2021/06/05 07:43:18;0.00;0.00;0.62;0.00;0.00;0.62;11.60;10.50;;;29.00;36.30;;;;;;2274135;61;20391;-71
2021/06/05 07:46:03;0.00;0.00;0.62;0.00;0.00;0.62;11.40;10.30;;;29.00;36.40;;;;;;2274177;61;20580;-73
2021/06/05 07:48:50;0.00;0.00;0.62;0.00;0.00;0.62;11.50;10.50;;;29.10;36.50;;;;;;2274343;61;20403;-66
2021/06/05 07:51:35;0.00;0.00;0.62;0.00;0.00;0.62;12.80;11.73;;;29.10;36.50;;;;;;2273824;61;20411;-70
2021/06/05 07:54:20;0.00;0.00;0.62;0.00;0.00;0.62;11.20;10.20;;;29.10;36.40;;;;;;2274196;61;20451;-69
2021/06/05 07:57:05;0.00;0.00;0.62;0.00;0.00;0.62;13.27;12.17;;;29.10;36.40;;;;;;2274193;61;20391;-69
2021/06/05 07:59:50;0.00;0.00;0.62;0.00;0.00;0.62;11.53;10.63;;;29.10;36.40;;;;;;2273868;61;20363;-69
2021/06/05 08:02:34;0.00;0.00;0.62;0.00;0.00;0.62;11.80;10.90;;;29.10;36.40;;;;;;2273813;61;20418;-70
2021/06/05 08:05:21;0.00;0.00;0.62;0.00;0.00;0.62;11.93;10.90;;;29.10;36.40;;;;;;2274187;61;20436;-66
2021/06/05 08:08:09;0.00;0.00;0.62;0.00;0.00;0.62;12.60;11.50;;;29.20;36.40;;;;;;2274069;61;20481;-69
2021/06/05 08:10:54;0.00;0.00;0.62;0.00;0.00;0.62;11.87;10.67;;;29.20;36.40;;;;;;2274159;61;20438;-67
2021/06/05 08:13:39;0.00;0.00;0.62;0.00;0.00;0.62;11.90;11.00;;;29.20;36.30;;;;;;2274071;61;20346;-70
2021/06/05 08:16:24;0.00;0.00;0.62;0.00;0.00;0.62;13.43;12.20;;;29.20;36.40;;;;;;2274025;61;20381;-70
2021/06/05 08:19:13;0.00;0.00;0.62;0.00;0.00;0.62;13.17;12.00;;;29.20;36.30;;;;;;2274540;61;20772;-68
2021/06/05 08:21:59;0.00;0.00;0.62;0.00;0.00;0.62;13.30;12.20;;;29.20;36.40;;;;;;2273463;61;20391;-70
2021/06/05 08:24:44;0.00;0.00;0.62;0.00;0.00;0.62;15.67;14.17;;;29.30;36.50;;;;;;2274071;61;20360;-69
2021/06/05 08:27:28;0.00;0.00;0.62;0.00;0.00;0.62;14.30;13.20;;;29.30;36.50;;;;;;2274226;61;20374;-69
2021/06/05 08:30:19;0.00;0.00;0.62;0.00;0.00;0.62;12.57;11.53;;;29.30;36.50;;;;;;2273599;61;20510;-69
2021/06/05 08:33:04;0.00;0.00;0.62;0.00;0.00;0.62;13.20;11.93;;;29.30;36.50;;;;;;2274328;61;20456;-71
2021/06/05 08:35:49;0.00;0.00;0.62;0.00;0.00;0.62;13.20;12.10;;;29.30;36.60;;;;;;2273987;61;20655;-70
2021/06/05 08:38:36;0.00;0.00;0.62;0.00;0.00;0.62;12.40;11.30;;;29.30;36.50;;;;;;2274058;61;20424;-68
2021/06/05 08:41:26;0.00;0.00;0.62;0.00;0.00;0.62;13.23;12.13;;;29.30;36.50;;;;;;2274161;61;20359;-68
2021/06/05 08:44:15;0.00;0.00;0.62;0.00;0.00;0.62;13.20;12.10;;;29.40;36.60;;;;;;2273991;61;20731;-71
2021/06/05 08:47:04;0.00;0.00;0.62;0.00;0.00;0.62;13.97;12.90;;;29.40;36.60;;;;;;2274126;61;20397;-69
2021/06/05 08:49:49;0.00;0.00;0.62;0.00;0.00;0.62;15.27;14.07;;;29.40;36.60;;;;;;2274131;61;20371;-70
2021/06/05 08:52:40;0.00;0.00;0.62;0.00;0.00;0.62;14.70;13.50;;;29.40;36.50;;;;;;2273399;61;20444;-69
2021/06/05 08:55:34;0.00;0.00;0.62;0.00;0.00;0.62;15.17;12.87;;;29.40;36.60;;;;;;2274242;61;20355;-68
2021/06/05 08:58:29;0.00;0.00;0.62;0.00;0.00;0.62;13.73;12.43;;;29.40;36.60;;;;;;2273021;61;20355;-69
2021/06/05 09:01:19;0.00;0.00;0.62;0.00;0.00;0.62;13.23;12.23;;;29.40;36.60;;;;;;2273712;61;20375;-69
2021/06/05 09:04:08;0.00;0.00;0.62;0.00;0.00;0.62;13.13;12.03;;;29.40;36.70;;;;;;2274049;61;20350;-69
2021/06/05 09:06:57;0.00;0.00;0.62;0.00;0.00;0.62;14.90;13.60;;;29.40;36.70;;;;;;2273954;61;20347;-73
2021/06/05 09:09:43;0.00;0.00;0.62;0.00;0.00;0.62;14.07;13.00;;;29.40;36.70;;;;;;2274005;61;20359;-69
2021/06/05 09:12:29;0.00;0.00;0.62;0.00;0.00;0.62;14.60;13.10;;;29.50;36.70;;;;;;2273862;61;20387;-69
2021/06/05 09:15:25;0.00;0.00;0.62;0.00;0.00;0.62;14.20;13.10;;;29.50;36.80;;;;;;2274001;61;20602;-71
2021/06/05 09:18:14;0.00;0.00;0.62;0.00;0.00;0.62;14.53;13.43;;;29.50;36.80;;;;;;2274073;61;20394;-67
2021/06/05 09:21:05;0.00;0.00;0.62;0.00;0.00;0.62;16.70;15.30;;;29.50;36.80;;;;;;2273662;61;20346;-67
2021/06/05 09:23:51;0.00;0.00;0.62;0.00;0.00;0.62;17.30;16.00;;;29.50;36.90;;;;;;2273602;61;20390;-72
2021/06/05 09:26:35;0.00;0.00;0.62;0.00;0.00;0.62;19.17;17.53;;;29.50;36.90;;;;;;2273826;61;20716;-70
2021/06/05 09:29:22;0.00;0.00;0.62;0.00;0.00;0.62;16.83;15.40;;;29.50;36.90;;;;;;2273609;61;20408;-72
2021/06/05 09:32:12;0.00;0.00;0.62;0.00;0.00;0.62;17.47;16.17;;;29.50;37.60;;;;;;2274037;61;20461;-69
2021/06/05 09:35:14;0.00;0.00;0.62;0.00;0.00;0.62;18.70;17.03;;;29.60;36.90;;;;;;2273779;61;20598;-72
2021/06/05 09:38:18;0.00;0.00;0.62;0.00;0.00;0.62;17.70;16.40;;;29.60;37.00;;;;;;2273882;61;20362;-70
2021/06/05 09:41:07;0.00;0.00;0.62;0.00;0.00;0.62;19.90;18.40;;;29.60;37.10;;;;;;2273478;61;20420;-71
2021/06/05 09:44:12;0.00;0.00;0.62;0.00;0.00;0.62;19.07;17.57;;;29.60;37.20;;;;;;2273605;61;20779;-66
2021/06/05 09:47:03;0.00;0.00;0.62;0.00;0.00;0.62;18.90;17.20;;;29.60;37.30;;;;;;2272912;61;20367;-69
2021/06/05 09:49:53;0.00;0.00;0.62;0.00;0.00;0.62;17.40;16.03;;;29.60;37.40;;;;;;2273432;61;20475;-69
2021/06/05 09:52:37;0.00;0.00;0.62;0.00;0.00;0.62;17.63;16.23;;;29.60;37.40;;;;;;2273741;61;20421;-69
2021/06/05 09:55:36;0.00;0.00;0.62;0.00;0.00;0.62;17.80;16.40;;;29.60;37.40;;;;;;2274143;57;20371;-66
2021/06/05 09:58:39;0.00;0.00;0.62;0.00;0.00;0.62;17.87;16.27;;;29.60;37.30;;;;;;2657981;45;20359;-67
2021/06/05 10:01:27;0.00;0.00;0.62;0.00;0.00;0.62;20.90;19.30;;;29.60;37.40;;;;;;2269723;61;20363;-69
2021/06/05 10:04:19;0.00;0.00;0.62;0.00;0.00;0.62;17.97;16.50;;;29.70;37.50;;;;;;2273282;61;20428;-68
2021/06/05 10:07:24;0.00;0.00;0.62;0.00;0.00;0.62;19.53;17.93;;;29.70;37.50;;;;;;2273572;61;20394;-68
2021/06/05 10:10:21;0.00;0.00;0.62;0.00;0.00;0.62;18.40;16.93;;;29.70;37.40;;;;;;2272766;61;20695;-67
2021/06/05 10:13:12;0.00;0.00;0.62;0.00;0.00;0.62;18.30;16.70;;;29.70;37.40;;;;;;2273613;61;20363;-64
2021/06/05 10:16:00;0.00;0.00;0.62;0.00;0.00;0.62;21.27;19.47;;;29.70;37.40;;;;;;2273202;61;20355;-70
2021/06/05 10:18:51;0.00;0.00;0.62;0.00;0.00;0.62;21.20;19.60;;;29.80;37.70;;;;;;2273406;61;20366;-67
2021/06/05 10:21:40;0.00;0.00;0.62;0.00;0.00;0.62;20.40;18.60;;;29.80;37.80;;;;;;2272842;61;20467;-71
2021/06/05 10:24:33;0.00;0.00;0.62;0.00;0.00;0.62;18.53;17.00;;;29.80;37.80;;;;;;2273694;61;20360;-71
2021/06/05 10:27:25;0.00;0.00;0.62;0.00;0.00;0.62;19.63;17.93;;;29.80;37.80;;;;;;2273415;61;20405;-70
2021/06/05 10:30:29;0.00;0.00;0.62;0.00;0.00;0.62;18.33;16.93;;;29.80;37.80;;;;;;2273467;61;20355;-73
2021/06/05 10:33:32;0.00;0.00;0.62;0.00;0.00;0.62;19.07;17.60;;;29.80;37.70;;;;;;2273572;61;20754;-75
2021/06/05 10:36:23;0.00;0.00;0.62;0.00;0.00;0.62;18.83;17.30;;;29.80;37.70;;;;;;2273400;61;20447;-71
2021/06/05 10:39:13;0.00;0.00;0.62;0.00;0.00;0.62;20.70;19.03;;;29.80;37.70;;;;;;2273721;61;20428;-67
2021/06/05 10:42:03;0.00;0.00;0.62;0.00;0.00;0.62;20.30;18.80;;;29.80;37.80;;;;;;2272851;61;20449;-70
2021/06/05 10:44:48;0.00;0.00;0.62;0.00;0.00;0.62;17.90;16.40;;;29.90;38.00;;;;;;2273581;61;20359;-66
2021/06/05 10:47:48;0.00;0.00;0.62;0.00;0.00;0.62;19.10;17.60;;;29.90;38.00;;;;;;2273434;61;20611;-73
2021/06/05 10:50:39;0.00;0.00;0.62;0.00;0.00;0.62;18.27;16.83;;;29.90;38.00;;;;;;2273502;61;20414;-69
2021/06/05 10:53:28;0.00;0.00;0.62;0.00;0.00;0.62;18.40;17.00;;;29.90;38.00;;;;;;2273729;61;20370;-69